In Rescue
 
Open Full Screen Window  High Contrast Mode
Wind Gusting 21 knots
16
February 23, 2019 11:35 PM CST
Weather Information
Wind Direction
  310 °
Wind Speed
  16 kt (18 mph)
Wind Gust
  21 kt (24 mph)
Altimeter
29.82 in
Visibility
10 SM
Temperature
-12° C
10° F
Dewpoint
-12° C
10° F
Humidity
100%
1hr Rain Fall
00.00 in.
24hr Rain Fall
00.02 in.
Sky Condition
Broken @ 400 ft
LIFR

METAR KMDS 240535Z AUTO 31016G21KT 10SM BKN004 M12/M12 A2982 RMK AO2

FAA Disclaimer: The data displayed is for advisory purposes only and is not to be used for flight planning or operations.